sensor_id;sensor_type;location;lat;lon;timestamp;temperature;humidity
41080;DHT22;26826;50.718;7.114;2022-09-03T00:03:54;18.60;85.30
41080;DHT22;26826;50.718;7.114;2022-09-03T00:14:06;18.50;85.60
41080;DHT22;26826;50.718;7.114;2022-09-03T00:24:12;18.40;85.60
41080;DHT22;26826;50.718;7.114;2022-09-03T00:34:29;18.30;85.40
41080;DHT22;26826;50.718;7.114;2022-09-03T00:55:21;18.00;87.20
41080;DHT22;26826;50.718;7.114;2022-09-03T01:46:51;17.40;90.10
41080;DHT22;26826;50.718;7.114;2022-09-03T02:06:59;17.60;89.50
41080;DHT22;26826;50.718;7.114;2022-09-03T02:17:03;17.60;89.30
41080;DHT22;26826;50.718;7.114;2022-09-03T02:27:04;17.60;89.30
41080;DHT22;26826;50.718;7.114;2022-09-03T02:37:14;17.60;89.40
41080;DHT22;26826;50.718;7.114;2022-09-03T02:57:56;17.50;90.00
41080;DHT22;26826;50.718;7.114;2022-09-03T03:07:57;17.40;90.10
41080;DHT22;26826;50.718;7.114;2022-09-03T03:17:57;17.50;90.00
41080;DHT22;26826;50.718;7.114;2022-09-03T03:27:58;17.50;90.20
41080;DHT22;26826;50.718;7.114;2022-09-03T03:37:59;17.50;90.40
41080;DHT22;26826;50.718;7.114;2022-09-03T03:48:00;17.40;90.90
41080;DHT22;26826;50.718;7.114;2022-09-03T03:58:00;17.50;91.30
41080;DHT22;26826;50.718;7.114;2022-09-03T04:08:01;17.40;91.50
41080;DHT22;26826;50.718;7.114;2022-09-03T04:18:02;17.60;91.30
41080;DHT22;26826;50.718;7.114;2022-09-03T04:28:03;17.50;91.40
41080;DHT22;26826;50.718;7.114;2022-09-03T04:38:03;17.50;91.40
41080;DHT22;26826;50.718;7.114;2022-09-03T04:48:04;17.30;91.80
41080;DHT22;26826;50.718;7.114;2022-09-03T04:58:05;17.30;92.00
41080;DHT22;26826;50.718;7.114;2022-09-03T05:08:08;17.50;92.10
41080;DHT22;26826;50.718;7.114;2022-09-03T05:18:09;17.60;92.30
41080;DHT22;26826;50.718;7.114;2022-09-03T05:28:10;17.60;92.10
41080;DHT22;26826;50.718;7.114;2022-09-03T05:38:10;17.60;92.40
41080;DHT22;26826;50.718;7.114;2022-09-03T05:48:12;17.90;91.90
41080;DHT22;26826;50.718;7.114;2022-09-03T05:58:12;17.80;92.00
41080;DHT22;26826;50.718;7.114;2022-09-03T06:08:14;18.00;92.10
41080;DHT22;26826;50.718;7.114;2022-09-03T06:18:15;18.20;92.10
41080;DHT22;26826;50.718;7.114;2022-09-03T06:28:16;18.30;92.00
41080;DHT22;26826;50.718;7.114;2022-09-03T06:38:17;18.90;91.60
41080;DHT22;26826;50.718;7.114;2022-09-03T06:48:21;19.30;91.00
41080;DHT22;26826;50.718;7.114;2022-09-03T06:58:22;19.20;90.50
41080;DHT22;26826;50.718;7.114;2022-09-03T07:08:26;19.00;90.90
41080;DHT22;26826;50.718;7.114;2022-09-03T07:18:27;18.80;91.40
41080;DHT22;26826;50.718;7.114;2022-09-03T07:28:29;18.60;92.00
41080;DHT22;26826;50.718;7.114;2022-09-03T07:38:33;17.90;96.10
41080;DHT22;26826;50.718;7.114;2022-09-03T07:48:34;16.50;99.90
41080;DHT22;26826;50.718;7.114;2022-09-03T07:58:36;15.90;99.90
41080;DHT22;26826;50.718;7.114;2022-09-03T08:08:39;15.70;99.90
41080;DHT22;26826;50.718;7.114;2022-09-03T08:18:45;15.60;99.90
41080;DHT22;26826;50.718;7.114;2022-09-03T08:28:47;15.40;99.90
41080;DHT22;26826;50.718;7.114;2022-09-03T08:38:51;15.60;99.90
41080;DHT22;26826;50.718;7.114;2022-09-03T08:48:54;16.10;99.90
41080;DHT22;26826;50.718;7.114;2022-09-03T08:58:56;16.60;99.90
41080;DHT22;26826;50.718;7.114;2022-09-03T09:09:21;17.00;99.90
41080;DHT22;26826;50.718;7.114;2022-09-03T09:29:47;18.00;99.90
41080;DHT22;26826;50.718;7.114;2022-09-03T09:39:59;18.50;99.90
41080;DHT22;26826;50.718;7.114;2022-09-03T09:50:01;19.50;99.90
41080;DHT22;26826;50.718;7.114;2022-09-03T10:00:16;19.40;99.90
41080;DHT22;26826;50.718;7.114;2022-09-03T10:10:20;19.50;99.90
41080;DHT22;26826;50.718;7.114;2022-09-03T10:20:43;19.30;99.90
41080;DHT22;26826;50.718;7.114;2022-09-03T10:31:02;19.70;99.90
41080;DHT22;26826;50.718;7.114;2022-09-03T10:41:29;19.70;99.90
41080;DHT22;26826;50.718;7.114;2022-09-03T10:51:42;20.20;99.90
41080;DHT22;26826;50.718;7.114;2022-09-03T11:02:16;20.00;99.90
41080;DHT22;26826;50.718;7.114;2022-09-03T11:12:28;20.30;99.90
41080;DHT22;26826;50.718;7.114;2022-09-03T11:22:30;20.70;99.90
41080;DHT22;26826;50.718;7.114;2022-09-03T11:42:49;21.90;99.90
41080;DHT22;26826;50.718;7.114;2022-09-03T11:52:52;22.10;99.90
41080;DHT22;26826;50.718;7.114;2022-09-03T12:02:54;22.90;99.90
41080;DHT22;26826;50.718;7.114;2022-09-03T12:13:20;23.90;99.90
41080;DHT22;26826;50.718;7.114;2022-09-03T12:33:52;26.60;98.70
41080;DHT22;26826;50.718;7.114;2022-09-03T12:43:58;26.20;98.80
41080;DHT22;26826;50.718;7.114;2022-09-03T12:54:00;26.90;98.00
41080;DHT22;26826;50.718;7.114;2022-09-03T13:04:05;26.70;97.80
41080;DHT22;26826;50.718;7.114;2022-09-03T13:14:10;26.90;96.60
41080;DHT22;26826;50.718;7.114;2022-09-03T13:35:01;27.10;96.00
41080;DHT22;26826;50.718;7.114;2022-09-03T13:45:38;27.90;94.90
41080;DHT22;26826;50.718;7.114;2022-09-03T13:56:33;27.80;94.80
41080;DHT22;26826;50.718;7.114;2022-09-03T14:06:41;28.50;94.10
41080;DHT22;26826;50.718;7.114;2022-09-03T14:16:53;28.30;93.70
41080;DHT22;26826;50.718;7.114;2022-09-03T14:26:58;28.70;94.20
41080;DHT22;26826;50.718;7.114;2022-09-03T14:37:20;28.20;93.50
41080;DHT22;26826;50.718;7.114;2022-09-03T14:47:52;29.00;92.80
41080;DHT22;26826;50.718;7.114;2022-09-03T15:19:09;27.00;95.00
41080;DHT22;26826;50.718;7.114;2022-09-03T15:30:07;26.80;95.30
41080;DHT22;26826;50.718;7.114;2022-09-03T15:40:28;26.70;94.90
41080;DHT22;26826;50.718;7.114;2022-09-03T15:50:34;24.40;99.90
41080;DHT22;26826;50.718;7.114;2022-09-03T16:00:53;23.60;99.90
41080;DHT22;26826;50.718;7.114;2022-09-03T16:21:47;19.80;99.90
41080;DHT22;26826;50.718;7.114;2022-09-03T16:53:02;19.60;99.90
41080;DHT22;26826;50.718;7.114;2022-09-03T17:03:20;19.00;99.90
41080;DHT22;26826;50.718;7.114;2022-09-03T17:14:07;18.70;99.90
41080;DHT22;26826;50.718;7.114;2022-09-03T17:24:36;18.70;99.90
41080;DHT22;26826;50.718;7.114;2022-09-03T17:45:10;18.50;99.90
41080;DHT22;26826;50.718;7.114;2022-09-03T17:55:36;18.50;99.90
41080;DHT22;26826;50.718;7.114;2022-09-03T18:06:05;18.50;99.90
41080;DHT22;26826;50.718;7.114;2022-09-03T18:16:23;18.40;99.90
41080;DHT22;26826;50.718;7.114;2022-09-03T18:26:30;18.40;99.90
41080;DHT22;26826;50.718;7.114;2022-09-03T18:36:50;18.30;99.90
41080;DHT22;26826;50.718;7.114;2022-09-03T18:58:40;18.20;99.90
41080;DHT22;26826;50.718;7.114;2022-09-03T19:09:08;18.10;99.90
41080;DHT22;26826;50.718;7.114;2022-09-03T19:30:17;18.00;99.90
41080;DHT22;26826;50.718;7.114;2022-09-03T19:51:34;17.80;99.90
41080;DHT22;26826;50.718;7.114;2022-09-03T20:01:56;17.80;99.90
41080;DHT22;26826;50.718;7.114;2022-09-03T20:12:18;17.80;99.90
41080;DHT22;26826;50.718;7.114;2022-09-03T20:32:48;17.60;99.90
41080;DHT22;26826;50.718;7.114;2022-09-03T20:43:02;17.50;99.90
41080;DHT22;26826;50.718;7.114;2022-09-03T21:03:18;17.60;99.90
41080;DHT22;26826;50.718;7.114;2022-09-03T21:13:31;17.70;99.90
41080;DHT22;26826;50.718;7.114;2022-09-03T21:23:41;17.60;99.90
41080;DHT22;26826;50.718;7.114;2022-09-03T21:33:47;17.50;99.90
41080;DHT22;26826;50.718;7.114;2022-09-03T21:43:54;17.50;99.90
41080;DHT22;26826;50.718;7.114;2022-09-03T21:54:08;17.60;99.90
41080;DHT22;26826;50.718;7.114;2022-09-03T22:04:10;17.40;99.90
41080;DHT22;26826;50.718;7.114;2022-09-03T22:14:15;17.40;99.90
41080;DHT22;26826;50.718;7.114;2022-09-03T22:24:42;17.30;99.90
41080;DHT22;26826;50.718;7.114;2022-09-03T22:35:09;17.40;99.90
41080;DHT22;26826;50.718;7.114;2022-09-03T22:45:26;17.30;99.90
41080;DHT22;26826;50.718;7.114;2022-09-03T22:55:31;17.20;99.90
41080;DHT22;26826;50.718;7.114;2022-09-03T23:05:37;17.30;99.90
41080;DHT22;26826;50.718;7.114;2022-09-03T23:15:40;17.20;99.90
41080;DHT22;26826;50.718;7.114;2022-09-03T23:25:46;17.00;99.90
41080;DHT22;26826;50.718;7.114;2022-09-03T23:46:37;17.00;99.90
41080;DHT22;26826;50.718;7.114;2022-09-03T23:57:03;17.00;99.90
